createdAt,value
2019-04-22T00:00:36.210Z,8.10
2019-04-22T00:03:06.481Z,8.10
2019-04-22T00:05:58.815Z,8.00
2019-04-22T00:08:30.688Z,8.00
2019-04-22T00:11:02.952Z,8.10
2019-04-22T00:13:34.070Z,8.10
2019-04-22T00:15:56.497Z,8.00
2019-04-22T00:18:47.985Z,7.80
2019-04-22T00:21:09.298Z,7.80
2019-04-22T00:23:31.856Z,7.80
2019-04-22T00:26:05.244Z,7.90
2019-04-22T00:28:41.537Z,7.90
2019-04-22T00:31:09.845Z,7.70
2019-04-22T00:33:53.362Z,7.80
2019-04-22T00:36:27.548Z,7.80
2019-04-22T00:39:03.358Z,7.80
2019-04-22T00:41:32.732Z,7.80
2019-04-22T00:44:02.928Z,7.80
2019-04-22T00:46:31.547Z,7.70
2019-04-22T00:49:46.738Z,7.70
2019-04-22T00:51:31.559Z,7.70
2019-04-22T00:53:57.556Z,7.70
2019-04-22T00:56:28.326Z,7.70
2019-04-22T00:59:01.631Z,7.60
2019-04-22T01:01:47.114Z,7.60
2019-04-22T01:04:07.202Z,7.60
2019-04-22T01:06:34.633Z,7.50
2019-04-22T01:14:04.787Z,7.40
2019-04-22T01:16:29.802Z,7.40
2019-04-22T01:19:00.540Z,7.40
2019-04-22T01:21:36.892Z,7.40
2019-04-22T01:23:57.632Z,7.40
2019-04-22T01:26:25.344Z,7.40
2019-04-22T01:28:53.498Z,7.30
2019-04-22T01:31:18.173Z,7.30
2019-04-22T01:33:49.736Z,7.20
2019-04-22T01:36:31.576Z,7.20
2019-04-22T01:39:02.300Z,7.30
2019-04-22T01:41:42.399Z,7.30
2019-04-22T01:44:14.298Z,7.30
2019-04-22T01:46:47.234Z,7.30
2019-04-22T01:49:10.409Z,7.30
2019-04-22T01:51:54.341Z,7.30
2019-04-22T01:54:12.198Z,7.30
2019-04-22T01:56:42.496Z,7.30
2019-04-22T01:59:05.121Z,7.20
2019-04-22T02:01:46.472Z,7.20
2019-04-22T02:04:17.588Z,7.20
2019-04-22T02:06:46.262Z,7.20
2019-04-22T02:09:17.751Z,7.10
2019-04-22T02:11:46.650Z,7.20
2019-04-22T02:14:11.642Z,7.10
2019-04-22T02:16:43.199Z,7.10
2019-04-22T02:19:20.750Z,7.20
2019-04-22T02:21:42.526Z,7.20
2019-04-22T02:24:12.067Z,7.30
2019-04-22T02:26:41.970Z,7.20
2019-04-22T02:29:17.137Z,7.20
2019-04-22T02:31:51.102Z,7.10
2019-04-22T02:34:24.076Z,7.10
2019-04-22T02:37:04.998Z,7.10
2019-04-22T02:39:38.299Z,7.10
2019-04-22T02:41:49.773Z,7.10
2019-04-22T02:44:26.347Z,7.10
2019-04-22T02:47:08.410Z,7.00
2019-04-22T02:49:25.387Z,7.10
2019-04-22T02:51:44.928Z,7.00
2019-04-22T02:56:48.680Z,7.00
2019-04-22T02:59:21.989Z,7.00
2019-04-22T03:01:51.400Z,7.00
2019-04-22T03:06:42.594Z,7.00
2019-04-22T03:09:25.602Z,7.00
2019-04-22T03:12:02.907Z,6.90
2019-04-22T03:14:22.342Z,7.00
2019-04-22T03:16:50.310Z,6.90
2019-04-22T03:21:54.570Z,6.80
2019-04-22T03:26:58.573Z,6.80
2019-04-22T03:47:52.934Z,6.70
2019-04-22T03:55:41.134Z,6.60
2019-04-22T03:57:59.329Z,6.50
2019-04-22T04:00:45.571Z,6.50
2019-04-22T04:03:11.944Z,6.40
2019-04-22T04:05:49.286Z,6.50
2019-04-22T04:08:18.400Z,6.50
2019-04-22T04:10:42.105Z,6.40
2019-04-22T04:15:34.254Z,6.50
2019-04-22T04:18:30.122Z,6.50
2019-04-22T04:20:45.117Z,6.50
2019-04-22T04:23:21.918Z,6.40
2019-04-22T04:25:56.608Z,6.40
2019-04-22T04:30:37.939Z,6.40
2019-04-22T04:33:21.246Z,6.40
2019-04-22T04:35:50.579Z,6.30
2019-04-22T04:38:15.043Z,6.40
2019-04-22T04:40:41.892Z,6.40
2019-04-22T04:43:18.992Z,6.40
2019-04-22T04:50:53.498Z,6.50
2019-04-22T04:53:20.181Z,6.50
2019-04-22T04:55:46.734Z,6.40
2019-04-22T05:00:57.783Z,6.50
2019-04-22T05:03:23.399Z,6.60
2019-04-22T05:05:47.834Z,6.50
2019-04-22T05:08:35.253Z,6.60
2019-04-22T05:13:39.717Z,6.70
2019-04-22T05:15:59.757Z,6.70
2019-04-22T05:21:09.663Z,6.80
2019-04-22T05:23:16.191Z,6.90
2019-04-22T05:25:40.849Z,7.00
2019-04-22T05:28:20.199Z,7.00
2019-04-22T05:30:41.022Z,7.10
2019-04-22T05:33:16.754Z,7.20
2019-04-22T05:35:51.063Z,7.20
2019-04-22T05:38:19.614Z,7.30
2019-04-22T05:40:45.184Z,7.30
2019-04-22T05:43:15.925Z,7.40
2019-04-22T05:45:43.293Z,7.50
2019-04-22T05:48:18.700Z,7.50
2019-04-22T05:50:46.995Z,7.60
2019-04-22T05:53:13.755Z,7.70
2019-04-22T05:55:47.935Z,7.70
2019-04-22T05:58:15.332Z,7.70
2019-04-22T06:01:21.847Z,7.70
2019-04-22T06:03:15.293Z,7.80
2019-04-22T06:05:48.577Z,7.90
2019-04-22T06:08:23.263Z,8.00
2019-04-22T06:10:54.153Z,8.10
2019-04-22T06:13:18.074Z,8.20
2019-04-22T06:15:53.016Z,8.40
2019-04-22T06:18:27.478Z,8.50
2019-04-22T06:21:22.315Z,8.60
2019-04-22T06:23:54.318Z,8.60
2019-04-22T06:33:54.686Z,9.20
2019-04-22T06:36:26.285Z,9.30
2019-04-22T06:38:50.229Z,9.40
2019-04-22T06:41:25.352Z,9.60
2019-04-22T06:43:55.973Z,9.60
2019-04-22T06:46:21.435Z,9.80
2019-04-22T06:48:47.946Z,10.00
2019-04-22T06:51:25.408Z,10.20
2019-04-22T06:53:47.401Z,10.40
2019-04-22T06:56:35.128Z,10.60
2019-04-22T06:58:55.104Z,10.80
2019-04-22T07:03:53.501Z,11.20
2019-04-22T07:06:26.217Z,11.30
2019-04-22T07:11:18.779Z,11.60
2019-04-22T07:13:56.619Z,12.00
2019-04-22T07:16:30.249Z,12.30
2019-04-22T07:21:19.706Z,12.50
2019-04-22T07:24:03.105Z,12.70
2019-04-22T07:26:23.065Z,12.80
2019-04-22T07:28:56.348Z,12.90
2019-04-22T07:31:23.142Z,13.10
2019-04-22T07:33:51.958Z,13.30
2019-04-22T07:38:48.936Z,13.30
2019-04-22T07:41:30.170Z,13.50
2019-04-22T07:44:07.438Z,13.50
2019-04-22T07:46:28.714Z,13.80
2019-04-22T07:48:57.745Z,13.90
2019-04-22T07:51:26.794Z,14.00
2019-04-22T07:53:56.057Z,14.30
2019-04-22T07:56:22.880Z,14.30
2019-04-22T07:58:58.707Z,14.50
2019-04-22T08:01:26.874Z,14.60
2019-04-22T08:04:13.140Z,15.00
2019-04-22T08:06:46.444Z,15.40
2019-04-22T08:09:00.331Z,15.70
2019-04-22T08:11:46.916Z,16.10
2019-04-22T08:13:55.240Z,16.50
2019-04-22T08:16:23.620Z,16.50
2019-04-22T08:19:04.160Z,16.60
2019-04-22T08:21:22.002Z,16.60
2019-04-22T08:24:01.164Z,16.50
2019-04-22T08:26:27.405Z,16.70
2019-04-22T08:29:03.417Z,16.70
2019-04-22T08:34:01.618Z,17.00
2019-04-22T08:36:31.614Z,17.00
2019-04-22T08:39:08.256Z,17.30
2019-04-22T08:46:33.997Z,17.20
2019-04-22T08:49:19.941Z,17.20
2019-04-22T08:51:50.740Z,17.10
2019-04-22T08:54:18.294Z,17.20
2019-04-22T08:56:49.397Z,17.10
2019-04-22T08:59:15.443Z,17.00
2019-04-22T09:01:51.383Z,17.10
2019-04-22T09:04:18.762Z,17.50
2019-04-22T09:09:48.942Z,17.60
2019-04-22T09:12:21.279Z,17.60
2019-04-22T09:14:45.726Z,17.50
2019-04-22T09:17:17.447Z,17.50
2019-04-22T09:19:43.642Z,17.60
2019-04-22T09:24:43.547Z,17.90
2019-04-22T09:27:18.109Z,18.10
2019-04-22T09:29:42.879Z,18.00
2019-04-22T09:34:47.280Z,18.00
2019-04-22T09:37:21.102Z,18.50
2019-04-22T09:39:51.734Z,19.10
2019-04-22T09:42:18.738Z,19.10
2019-04-22T09:44:47.553Z,19.30
2019-04-22T09:47:19.224Z,19.70
2019-04-22T09:49:49.728Z,19.70
2019-04-22T09:52:14.898Z,19.50
2019-04-22T09:54:55.728Z,19.10
2019-04-22T09:57:20.150Z,19.10
2019-04-22T09:59:51.375Z,19.40
2019-04-22T10:04:57.310Z,19.70
2019-04-22T10:07:21.051Z,19.90
2019-04-22T10:09:59.716Z,20.20
2019-04-22T10:12:19.329Z,20.50
2019-04-22T10:14:49.227Z,20.40
2019-04-22T10:17:17.781Z,20.50
2019-04-22T10:19:47.980Z,20.60
2019-04-22T10:22:30.793Z,20.90
2019-04-22T10:24:55.401Z,20.90
2019-04-22T10:27:20.630Z,21.10
2019-04-22T10:29:53.733Z,21.10
2019-04-22T10:32:19.121Z,21.10
2019-04-22T10:34:36.026Z,21.60
2019-04-22T10:37:02.641Z,21.50
2019-04-22T10:39:37.872Z,21.10
2019-04-22T10:41:58.773Z,21.00
2019-04-22T10:44:28.806Z,21.40
2019-04-22T10:46:58.029Z,22.10
2019-04-22T10:49:26.721Z,22.00
2019-04-22T10:51:55.320Z,22.40
2019-04-22T10:54:25.245Z,22.60
2019-04-22T10:56:55.056Z,22.80
2019-04-22T10:59:24.674Z,21.80
2019-04-22T11:01:54.804Z,21.70
2019-04-22T11:04:23.520Z,22.20
2019-04-22T11:06:56.350Z,22.20
2019-04-22T11:09:23.867Z,22.30
2019-04-22T11:12:01.699Z,22.90
2019-04-22T11:14:23.131Z,23.50
2019-04-22T11:16:53.186Z,23.60
2019-04-22T11:19:23.463Z,25.20
2019-04-22T11:22:03.742Z,24.60
2019-04-22T11:24:23.061Z,24.40
2019-04-22T11:26:52.736Z,23.70
2019-04-22T11:29:21.481Z,23.40
2019-04-22T11:31:50.437Z,23.10
2019-04-22T11:34:19.407Z,25.10
2019-04-22T11:36:48.098Z,27.30
2019-04-22T11:39:17.028Z,26.00
2019-04-22T11:41:46.426Z,25.10
2019-04-22T11:44:15.238Z,25.70
2019-04-22T11:46:44.975Z,26.10
2019-04-22T11:49:14.065Z,24.90
2019-04-22T11:51:42.931Z,24.90
2019-04-22T11:54:12.538Z,25.50
2019-04-22T11:56:41.171Z,24.80
2019-04-22T11:59:10.896Z,24.70
2019-04-22T12:01:39.668Z,24.90
2019-04-22T12:04:09.613Z,25.00
2019-04-22T12:06:37.837Z,24.80
2019-04-22T12:09:12.132Z,23.80
2019-04-22T12:11:40.889Z,24.00
2019-04-22T12:14:09.859Z,25.70
2019-04-22T12:16:39.351Z,26.10
2019-04-22T12:19:09.214Z,25.20
2019-04-22T12:21:39.216Z,24.70
2019-04-22T12:24:09.074Z,25.10
2019-04-22T12:26:38.023Z,24.90
2019-04-22T12:29:07.161Z,25.50
2019-04-22T12:31:35.822Z,25.70
2019-04-22T12:34:05.982Z,25.90
2019-04-22T12:36:36.129Z,26.70
2019-04-22T12:39:09.450Z,26.10
2019-04-22T12:41:38.349Z,25.40
2019-04-22T12:44:07.504Z,26.00
2019-04-22T12:46:36.596Z,26.10
2019-04-22T12:49:05.267Z,25.50
2019-04-22T12:51:34.056Z,25.80
2019-04-22T12:54:03.368Z,26.10
2019-04-22T12:56:33.427Z,25.70
2019-04-22T12:59:03.703Z,24.60
2019-04-22T13:01:33.113Z,24.90
2019-04-22T13:04:07.375Z,25.10
2019-04-22T13:06:32.126Z,25.00
2019-04-22T13:09:02.062Z,24.70
2019-04-22T13:11:34.060Z,25.20
2019-04-22T13:14:00.957Z,25.40
2019-04-22T13:16:31.087Z,25.70
2019-04-22T13:19:05.054Z,25.40
2019-04-22T13:21:31.129Z,25.40
2019-04-22T13:23:59.704Z,25.80
2019-04-22T13:26:29.643Z,25.90
2019-04-22T13:28:59.056Z,25.50
2019-04-22T13:31:28.885Z,25.30
2019-04-22T13:34:00.194Z,24.80
2019-04-22T13:36:29.603Z,24.70
2019-04-22T13:38:58.747Z,25.10
2019-04-22T13:41:35.681Z,25.20
2019-04-22T13:43:58.084Z,25.30
2019-04-22T13:46:31.104Z,25.00
2019-04-22T13:49:24.032Z,24.90
2019-04-22T13:52:00.914Z,24.90
2019-04-22T13:56:50.640Z,24.60
2019-04-22T13:59:08.981Z,24.90
2019-04-22T14:01:30.336Z,24.80
2019-04-22T14:04:07.114Z,24.50
2019-04-22T14:06:36.558Z,24.70
2019-04-22T14:09:07.619Z,25.10
2019-04-22T14:11:46.182Z,25.00
2019-04-22T14:14:06.963Z,24.80
2019-04-22T14:16:37.118Z,24.60
2019-04-22T14:19:05.834Z,24.40
2019-04-22T14:21:34.836Z,24.70
2019-04-22T14:24:23.731Z,24.80
2019-04-22T14:27:08.770Z,25.10
2019-04-22T14:29:23.854Z,24.20
2019-04-22T14:32:17.106Z,24.80
2019-04-22T14:34:41.152Z,24.70
2019-04-22T14:37:09.988Z,24.70
2019-04-22T14:39:39.917Z,25.00
2019-04-22T14:44:08.382Z,24.60
2019-04-22T14:45:19.029Z,24.20
2019-04-22T14:47:31.229Z,24.10
2019-04-22T14:49:59.077Z,23.70
2019-04-22T14:52:39.574Z,23.50
2019-04-22T14:54:52.068Z,23.70
2019-04-22T14:57:08.180Z,23.30
2019-04-22T14:59:37.725Z,23.70
2019-04-22T15:02:07.623Z,24.20
2019-04-22T15:04:37.310Z,24.10
2019-04-22T15:07:07.347Z,23.70
2019-04-22T15:09:37.644Z,23.50
2019-04-22T15:12:14.832Z,23.30
2019-04-22T15:14:37.436Z,22.80
2019-04-22T15:17:24.973Z,22.70
2019-04-22T15:20:11.845Z,22.60
2019-04-22T15:22:40.932Z,22.30
2019-04-22T15:25:10.434Z,22.30
2019-04-22T15:27:39.480Z,22.10
2019-04-22T15:30:09.711Z,21.90
2019-04-22T15:32:39.055Z,21.80
2019-04-22T15:35:09.155Z,21.70
2019-04-22T15:37:39.328Z,21.60
2019-04-22T15:40:09.003Z,21.80
2019-04-22T15:42:41.196Z,22.00
2019-04-22T15:45:09.204Z,22.00
2019-04-22T15:47:39.897Z,22.30
2019-04-22T15:50:10.347Z,22.50
2019-04-22T15:52:46.029Z,22.80
2019-04-22T15:55:09.214Z,22.90
2019-04-22T15:57:39.456Z,22.40
2019-04-22T16:00:22.449Z,22.20
2019-04-22T16:02:39.457Z,21.80
2019-04-22T16:05:08.755Z,21.50
2019-04-22T16:07:37.902Z,21.30
2019-04-22T16:10:07.991Z,21.10
2019-04-22T16:12:49.171Z,21.10
2019-04-22T16:15:09.595Z,21.10
2019-04-22T16:17:38.195Z,21.10
2019-04-22T16:20:08.930Z,21.00
2019-04-22T16:22:57.200Z,21.10
2019-04-22T16:25:42.943Z,21.10
2019-04-22T16:28:13.016Z,21.20
2019-04-22T16:30:43.495Z,21.20
2019-04-22T16:33:13.251Z,21.20
2019-04-22T16:35:42.671Z,21.20
2019-04-22T16:38:12.778Z,21.20
2019-04-22T16:40:42.862Z,21.30
2019-04-22T16:43:13.440Z,21.50
2019-04-22T16:45:43.295Z,21.40
2019-04-22T16:48:13.623Z,21.30
2019-04-22T16:50:44.690Z,21.20
2019-04-22T16:53:14.208Z,21.20
2019-04-22T16:55:42.858Z,21.20
2019-04-22T16:58:12.672Z,21.00
2019-04-22T17:00:42.782Z,21.00
2019-04-22T17:03:13.143Z,20.90
2019-04-22T17:05:47.489Z,20.80
2019-04-22T17:08:16.472Z,20.60
2019-04-22T17:10:46.033Z,20.50
2019-04-22T17:13:20.956Z,20.50
2019-04-22T17:15:45.131Z,20.50
2019-04-22T17:18:14.776Z,20.50
2019-04-22T17:20:46.534Z,20.30
2019-04-22T17:23:15.777Z,20.10
2019-04-22T17:26:03.284Z,20.10
2019-04-22T17:28:33.323Z,20.10
2019-04-22T17:31:01.986Z,20.10
2019-04-22T17:33:30.865Z,20.00
2019-04-22T17:35:59.412Z,19.90
2019-04-22T17:38:40.062Z,19.80
2019-04-22T17:41:11.633Z,19.80
2019-04-22T17:43:54.260Z,19.70
2019-04-22T17:46:23.385Z,19.50
2019-04-22T17:49:23.651Z,19.40
2019-04-22T17:52:12.431Z,19.30
2019-04-22T17:54:37.400Z,19.10
2019-04-22T17:57:08.034Z,19.10
2019-04-22T17:59:42.048Z,19.00
2019-04-22T18:02:12.922Z,19.00
2019-04-22T18:04:23.417Z,18.90
2019-04-22T18:07:18.623Z,18.80
2019-04-22T18:10:14.696Z,18.90
2019-04-22T18:12:22.394Z,18.80
2019-04-22T18:14:48.103Z,18.70
2019-04-22T18:17:20.331Z,18.80
2019-04-22T18:19:40.233Z,18.70
2019-04-22T18:22:10.824Z,18.70
2019-04-22T18:24:32.736Z,18.60
2019-04-22T18:27:31.937Z,18.60
2019-04-22T18:29:43.053Z,18.50
2019-04-22T18:32:07.385Z,18.50
2019-04-22T18:34:37.243Z,18.40
2019-04-22T18:37:14.275Z,18.30
2019-04-22T18:39:47.840Z,18.10
2019-04-22T18:42:09.244Z,18.10
2019-04-22T18:44:50.412Z,18.10
2019-04-22T18:47:11.729Z,18.00
2019-04-22T18:49:42.388Z,18.00
2019-04-22T18:52:19.362Z,18.00
2019-04-22T18:55:07.167Z,18.00
2019-04-22T18:57:31.332Z,17.90
2019-04-22T18:59:55.502Z,17.80
2019-04-22T19:02:24.689Z,17.70
2019-04-22T19:05:01.051Z,17.60
2019-04-22T19:07:42.397Z,17.60
2019-04-22T19:10:17.436Z,17.50
2019-04-22T19:13:03.001Z,17.40
2019-04-22T19:15:16.383Z,17.40
2019-04-22T19:17:58.318Z,17.40
2019-04-22T19:20:16.956Z,17.40
2019-04-22T19:22:43.858Z,17.30
2019-04-22T19:25:06.164Z,17.20
2019-04-22T19:27:42.152Z,17.20
2019-04-22T19:30:16.021Z,17.10
2019-04-22T19:32:46.390Z,17.00
2019-04-22T19:35:14.448Z,16.90
2019-04-22T19:37:41.344Z,16.80
2019-04-22T19:40:23.876Z,16.70
2019-04-22T19:42:53.578Z,16.70
2019-04-22T19:45:15.782Z,16.70
2019-04-22T19:47:50.091Z,16.70
2019-04-22T19:50:24.244Z,16.60
2019-04-22T19:52:46.177Z,16.50
2019-04-22T19:55:18.261Z,16.50
2019-04-22T20:01:21.009Z,16.40
2019-04-22T20:04:26.607Z,16.40
2019-04-22T20:06:47.594Z,16.30
2019-04-22T20:09:20.712Z,16.30
2019-04-22T20:11:43.482Z,16.30
2019-04-22T20:14:16.966Z,16.40
2019-04-22T20:16:43.894Z,16.30
2019-04-22T20:19:25.212Z,16.30
2019-04-22T20:21:51.813Z,16.30
2019-04-22T20:24:16.874Z,16.20
2019-04-22T20:27:20.346Z,16.10
2019-04-22T20:29:40.033Z,16.20
2019-04-22T20:32:05.324Z,16.20
2019-04-22T20:34:42.231Z,16.10
2019-04-22T20:37:10.707Z,16.00
2019-04-22T20:39:40.450Z,15.90
2019-04-22T20:42:16.627Z,15.80
2019-04-22T20:44:42.430Z,15.70
2019-04-22T20:47:00.056Z,15.70
2019-04-22T20:49:38.272Z,15.60
2019-04-22T20:52:11.471Z,15.50
2019-04-22T20:54:39.030Z,15.40
2019-04-22T20:57:03.842Z,15.40
2019-04-22T20:59:33.366Z,15.50
2019-04-22T21:02:03.133Z,15.40
2019-04-22T21:04:24.762Z,15.30
2019-04-22T21:07:02.231Z,15.20
2019-04-22T21:09:35.409Z,15.10
2019-04-22T21:12:02.241Z,15.00
2019-04-22T21:14:32.463Z,14.90
2019-04-22T21:17:10.132Z,14.70
2019-04-22T21:19:48.044Z,14.50
2019-04-22T21:22:12.417Z,14.30
2019-04-22T21:24:34.468Z,14.20
2019-04-22T21:27:18.305Z,14.20
2019-04-22T21:29:33.653Z,14.00
2019-04-22T21:32:10.485Z,14.00
2019-04-22T21:34:47.563Z,13.80
2019-04-22T21:37:14.034Z,13.80
2019-04-22T21:39:39.970Z,13.60
2019-04-22T21:42:06.303Z,13.70
2019-04-22T21:44:43.263Z,13.60
2019-04-22T21:47:18.749Z,13.60
2019-04-22T21:49:45.865Z,13.50
2019-04-22T21:52:13.886Z,13.50
2019-04-22T21:54:50.141Z,13.40
2019-04-22T21:57:35.811Z,13.40
2019-04-22T22:00:07.809Z,13.40
2019-04-22T22:02:36.993Z,13.30
2019-04-22T22:04:57.986Z,13.40
2019-04-22T22:07:17.228Z,13.30
2019-04-22T22:09:59.664Z,13.30
2019-04-22T22:12:36.163Z,13.30
2019-04-22T22:15:04.058Z,13.20
2019-04-22T22:17:30.710Z,13.10
2019-04-22T22:19:57.784Z,13.00
2019-04-22T22:22:50.070Z,13.10
2019-04-22T22:25:10.568Z,13.10
2019-04-22T22:27:39.325Z,13.00
2019-04-22T22:32:49.796Z,13.00
2019-04-22T22:35:13.323Z,12.90
2019-04-22T22:37:45.054Z,12.90
2019-04-22T22:40:03.465Z,12.90
2019-04-22T22:42:33.723Z,12.90
2019-04-22T22:45:07.933Z,12.90
2019-04-22T22:47:47.145Z,12.90
2019-04-22T22:50:17.161Z,13.00
2019-04-22T22:52:59.286Z,13.00
2019-04-22T22:55:14.799Z,13.00
2019-04-22T22:57:46.106Z,13.00
2019-04-22T23:00:16.227Z,13.00
2019-04-22T23:03:02.391Z,13.00
2019-04-22T23:05:18.188Z,13.00
2019-04-22T23:07:54.261Z,12.90
2019-04-22T23:10:17.817Z,12.90
2019-04-22T23:13:11.567Z,12.80
2019-04-22T23:15:15.315Z,12.90
2019-04-22T23:17:30.497Z,12.80
2019-04-22T23:19:59.595Z,12.90
2019-04-22T23:22:40.702Z,13.00
2019-04-22T23:25:23.422Z,12.90
2019-04-22T23:27:52.564Z,13.00
2019-04-22T23:30:36.220Z,12.90
2019-04-22T23:33:18.578Z,13.00
2019-04-22T23:35:51.833Z,13.00
2019-04-22T23:38:37.570Z,13.00
2019-04-22T23:41:05.688Z,13.10
2019-04-22T23:43:42.389Z,13.10
2019-04-22T23:46:02.383Z,13.00
2019-04-22T23:48:29.079Z,13.10
2019-04-22T23:51:08.654Z,13.00
2019-04-22T23:53:57.530Z,13.10
2019-04-22T23:56:04.261Z,13.10
